Time,TemperatureF,DewpointF,PressureIn,WindDirection,WindDirectionDegrees,WindSpeedMPH,WindSpeedGustMPH,Humidity,HourlyPrecipIn,Conditions,Clouds,dailyrainin,SoftwareType,DateUTC
2013-02-05 00:00:00,58.1,54.2,29.86,ENE,66,0.0,0.0,87,0.00,,,0.00,WeatherTracker,2013-02-05 06:00:00,
2013-02-05 00:05:00,58.1,54.6,29.86,ENE,66,0.0,0.0,88,0.00,,,0.00,WeatherTracker,2013-02-05 06:05:00,
2013-02-05 00:10:00,58.4,54.9,29.85,East,82,0.0,1.0,88,0.00,,,0.00,WeatherTracker,2013-02-05 06:10:00,
2013-02-05 00:15:00,58.4,54.9,29.86,East,82,0.0,1.0,88,0.00,,,0.00,WeatherTracker,2013-02-05 06:15:00,
2013-02-05 00:20:00,58.5,55.0,29.86,East,82,0.0,0.0,88,0.00,,,0.00,WeatherTracker,2013-02-05 06:20:00,
2013-02-05 00:25:00,58.4,54.9,29.85,East,82,0.0,0.0,88,0.00,,,0.00,WeatherTracker,2013-02-05 06:25:00,
2013-02-05 00:30:00,58.2,55.0,29.85,East,82,0.0,0.0,89,0.00,,,0.00,WeatherTracker,2013-02-05 06:30:00,
2013-02-05 00:35:00,58.3,55.4,29.85,East,82,0.0,0.0,90,0.00,,,0.00,WeatherTracker,2013-02-05 06:35:00,
2013-02-05 00:40:00,58.5,55.6,29.86,East,82,0.0,0.0,90,0.00,,,0.00,WeatherTracker,2013-02-05 06:40:00,
2013-02-05 00:46:00,58.2,55.0,29.86,East,82,0.0,0.0,89,0.00,,,0.00,WeatherTracker,2013-02-05 06:46:00,
2013-02-05 00:51:00,57.7,54.5,29.85,East,82,0.0,0.0,89,0.00,,,0.00,WeatherTracker,2013-02-05 06:51:00,
2013-02-05 00:56:00,57.5,54.6,29.85,East,82,0.0,0.0,90,0.00,,,0.00,WeatherTracker,2013-02-05 06:56:00,
2013-02-05 01:01:00,57.0,54.1,29.86,East,82,0.0,0.0,90,0.00,,,0.00,WeatherTracker,2013-02-05 07:01:00,
2013-02-05 01:06:00,56.0,52.5,29.86,East,82,0.0,1.0,88,0.00,,,0.00,WeatherTracker,2013-02-05 07:06:00,
2013-02-05 01:11:00,55.3,51.8,29.86,East,82,0.0,1.0,88,0.00,,,0.00,WeatherTracker,2013-02-05 07:11:00,
2013-02-05 01:16:00,55.1,52.2,29.86,East,82,0.0,1.0,90,0.00,,,0.00,WeatherTracker,2013-02-05 07:16:00,
2013-02-05 01:21:00,55.3,52.1,29.86,East,82,0.0,1.0,89,0.00,,,0.00,WeatherTracker,2013-02-05 07:21:00,
2013-02-05 01:26:00,55.0,51.8,29.86,East,82,0.0,0.0,89,0.00,,,0.00,WeatherTracker,2013-02-05 07:26:00,
2013-02-05 01:31:00,55.1,52.5,29.86,East,82,0.0,0.0,91,0.00,,,0.00,WeatherTracker,2013-02-05 07:31:00,
2013-02-05 01:36:00,55.2,52.6,29.86,East,82,0.0,0.0,91,0.00,,,0.00,WeatherTracker,2013-02-05 07:36:00,
2013-02-05 01:41:00,55.2,52.6,29.86,East,82,0.0,0.0,91,0.00,,,0.00,WeatherTracker,2013-02-05 07:41:00,
2013-02-05 01:46:00,55.1,52.5,29.86,East,82,0.0,0.0,91,0.00,,,0.00,WeatherTracker,2013-02-05 07:46:00,
2013-02-05 01:51:00,55.0,52.4,29.86,East,82,0.0,0.0,91,0.00,,,0.00,WeatherTracker,2013-02-05 07:51:00,
2013-02-05 01:56:00,54.5,51.6,29.86,East,82,0.0,0.0,90,0.00,,,0.00,WeatherTracker,2013-02-05 07:56:00,
2013-02-05 02:01:00,53.9,51.0,29.86,East,82,0.0,0.0,90,0.00,,,0.00,WeatherTracker,2013-02-05 08:01:00,
2013-02-05 02:06:00,53.6,51.0,29.86,East,82,0.0,0.0,91,0.00,,,0.00,WeatherTracker,2013-02-05 08:06:00,
2013-02-05 02:11:00,53.4,50.8,29.86,East,82,0.0,0.0,91,0.00,,,0.00,WeatherTracker,2013-02-05 08:11:00,
2013-02-05 02:16:00,53.2,50.6,29.86,East,82,0.0,0.0,91,0.00,,,0.00,WeatherTracker,2013-02-05 08:16:00,
2013-02-05 02:21:00,52.9,50.3,29.85,East,82,0.0,0.0,91,0.00,,,0.00,WeatherTracker,2013-02-05 08:21:00,
2013-02-05 02:26:00,53.0,50.7,29.85,East,82,0.0,0.0,92,0.00,,,0.00,WeatherTracker,2013-02-05 08:26:00,
2013-02-05 02:31:00,53.2,50.9,29.85,ENE,77,0.0,1.0,92,0.00,,,0.00,WeatherTracker,2013-02-05 08:31:00,
2013-02-05 02:36:00,53.1,50.8,29.85,ENE,77,0.0,1.0,92,0.00,,,0.00,WeatherTracker,2013-02-05 08:36:00,
2013-02-05 02:41:00,53.0,50.7,29.85,ENE,78,0.0,1.0,92,0.00,,,0.00,WeatherTracker,2013-02-05 08:41:00,
2013-02-05 02:46:00,52.9,50.9,29.85,ENE,78,0.0,0.0,93,0.00,,,0.00,WeatherTracker,2013-02-05 08:46:00,
2013-02-05 02:51:00,53.1,51.1,29.85,ENE,78,0.0,0.0,93,0.00,,,0.00,WeatherTracker,2013-02-05 08:51:00,
2013-02-05 02:56:00,53.0,51.0,29.85,ENE,78,0.0,0.0,93,0.00,,,0.00,WeatherTracker,2013-02-05 08:56:00,
2013-02-05 03:01:00,53.1,51.1,29.86,ENE,78,0.0,0.0,93,0.00,,,0.00,WeatherTracker,2013-02-05 09:01:00,
2013-02-05 03:06:00,53.0,51.0,29.86,ENE,78,0.0,0.0,93,0.00,,,0.00,WeatherTracker,2013-02-05 09:06:00,
2013-02-05 03:11:00,53.2,51.5,29.86,ENE,77,0.0,1.0,94,0.00,,,0.00,WeatherTracker,2013-02-05 09:11:00,
2013-02-05 03:16:00,53.6,51.9,29.86,ENE,77,0.0,1.0,94,0.00,,,0.00,WeatherTracker,2013-02-05 09:16:00,
2013-02-05 03:21:00,53.8,52.1,29.86,ENE,77,0.0,0.0,94,0.00,,,0.00,WeatherTracker,2013-02-05 09:21:00,
2013-02-05 03:26:00,53.8,52.1,29.86,ENE,78,0.0,0.0,94,0.00,,,0.00,WeatherTracker,2013-02-05 09:26:00,
2013-02-05 03:32:00,53.4,51.4,29.86,ENE,77,0.0,0.0,93,0.00,,,0.00,WeatherTracker,2013-02-05 09:32:00,
2013-02-05 03:37:00,52.9,50.9,29.86,ENE,78,0.0,0.0,93,0.00,,,0.00,WeatherTracker,2013-02-05 09:37:00,
2013-02-05 03:42:00,52.5,50.5,29.86,ENE,77,0.0,0.0,93,0.00,,,0.00,WeatherTracker,2013-02-05 09:42:00,
2013-02-05 03:47:00,52.2,50.2,29.86,ENE,77,0.0,0.0,93,0.00,,,0.00,WeatherTracker,2013-02-05 09:47:00,
2013-02-05 03:52:00,52.2,50.5,29.86,ENE,77,0.0,0.0,94,0.00,,,0.00,WeatherTracker,2013-02-05 09:52:00,
2013-02-05 03:57:00,52.2,50.5,29.86,ENE,78,0.0,0.0,94,0.00,,,0.00,WeatherTracker,2013-02-05 09:57:00,
2013-02-05 04:02:00,52.9,51.5,29.86,ENE,78,0.0,0.0,95,0.00,,,0.00,WeatherTracker,2013-02-05 10:02:00,
2013-02-05 04:07:00,53.4,52.0,29.86,ENE,77,0.0,0.0,95,0.00,,,0.00,WeatherTracker,2013-02-05 10:07:00,
2013-02-05 04:12:00,53.6,52.2,29.86,ENE,77,0.0,0.0,95,0.00,,,0.00,WeatherTracker,2013-02-05 10:12:00,
2013-02-05 04:17:00,53.6,52.2,29.86,ENE,78,0.0,0.0,95,0.00,,,0.00,WeatherTracker,2013-02-05 10:17:00,
2013-02-05 04:22:00,53.9,52.5,29.86,ENE,77,0.0,0.0,95,0.00,,,0.00,WeatherTracker,2013-02-05 10:22:00,
2013-02-05 04:27:00,53.7,52.3,29.86,ENE,78,0.0,0.0,95,0.00,,,0.00,WeatherTracker,2013-02-05 10:27:00,
2013-02-05 04:32:00,53.6,52.2,29.86,ENE,77,0.0,0.0,95,0.00,,,0.00,WeatherTracker,2013-02-05 10:32:00,
2013-02-05 04:37:00,53.5,52.1,29.86,ENE,77,0.0,0.0,95,0.00,,,0.00,WeatherTracker,2013-02-05 10:37:00,
2013-02-05 04:42:00,53.4,52.0,29.86,ENE,78,0.0,0.0,95,0.00,,,0.00,WeatherTracker,2013-02-05 10:42:00,
2013-02-05 04:47:00,53.3,51.9,29.86,ENE,78,0.0,0.0,95,0.00,,,0.00,WeatherTracker,2013-02-05 10:47:00,
2013-02-05 04:52:00,53.0,51.3,29.86,ENE,78,0.0,0.0,94,0.00,,,0.00,WeatherTracker,2013-02-05 10:52:00,
2013-02-05 04:57:00,52.5,50.8,29.86,ENE,78,0.0,1.0,94,0.00,,,0.00,WeatherTracker,2013-02-05 10:57:00,
2013-02-05 05:02:00,52.6,51.2,29.86,ENE,77,0.0,1.0,95,0.00,,,0.00,WeatherTracker,2013-02-05 11:02:00,
2013-02-05 05:07:00,53.0,51.6,29.86,ENE,78,0.0,1.0,95,0.00,,,0.00,WeatherTracker,2013-02-05 11:07:00,
2013-02-05 05:12:00,53.2,51.8,29.86,ENE,78,0.0,1.0,95,0.00,,,0.00,WeatherTracker,2013-02-05 11:12:00,
2013-02-05 05:17:00,53.6,52.5,29.86,ENE,77,0.0,1.0,96,0.00,,,0.00,WeatherTracker,2013-02-05 11:17:00,
2013-02-05 05:22:00,54.0,52.9,29.86,ENE,78,0.0,0.0,96,0.00,,,0.00,WeatherTracker,2013-02-05 11:22:00,
2013-02-05 05:27:00,53.6,51.9,29.87,ENE,76,0.0,1.0,94,0.00,,,0.00,WeatherTracker,2013-02-05 11:27:00,
2013-02-05 05:32:00,53.1,51.4,29.87,ENE,62,0.0,2.0,94,0.00,,,0.00,WeatherTracker,2013-02-05 11:32:00,
2013-02-05 05:37:00,52.6,50.9,29.87,ENE,63,0.0,2.0,94,0.00,,,0.00,WeatherTracker,2013-02-05 11:37:00,
2013-02-05 05:43:00,52.4,50.7,29.87,ENE,71,0.0,1.0,94,0.00,,,0.00,WeatherTracker,2013-02-05 11:43:00,
2013-02-05 05:48:00,51.8,49.8,29.88,ENE,63,0.0,2.0,93,0.00,,,0.00,WeatherTracker,2013-02-05 11:48:00,
2013-02-05 05:53:00,51.2,49.2,29.88,NE,56,1.0,2.0,93,0.00,,,0.00,WeatherTracker,2013-02-05 11:53:00,
2013-02-05 05:58:00,51.0,49.3,29.88,NE,51,1.0,2.0,94,0.00,,,0.00,WeatherTracker,2013-02-05 11:58:00,
2013-02-05 06:03:00,51.1,49.7,29.88,ENE,57,1.0,2.0,95,0.00,,,0.00,WeatherTracker,2013-02-05 12:03:00,
2013-02-05 06:08:00,51.2,49.5,29.88,East,79,0.0,2.0,94,0.00,,,0.00,WeatherTracker,2013-02-05 12:08:00,
2013-02-05 06:13:00,51.1,49.4,29.88,East,79,0.0,1.0,94,0.00,,,0.00,WeatherTracker,2013-02-05 12:13:00,
2013-02-05 06:18:00,50.9,48.9,29.88,East,79,0.0,0.0,93,0.00,,,0.00,WeatherTracker,2013-02-05 12:18:00,
2013-02-05 06:23:00,50.7,49.0,29.89,East,79,0.0,0.0,94,0.00,,,0.00,WeatherTracker,2013-02-05 12:23:00,
2013-02-05 06:28:00,50.4,48.5,29.89,East,79,0.0,0.0,93,0.00,,,0.00,WeatherTracker,2013-02-05 12:28:00,
2013-02-05 06:33:00,50.2,48.5,29.89,ENE,77,0.0,1.0,94,0.00,,,0.00,WeatherTracker,2013-02-05 12:33:00,
2013-02-05 06:38:00,50.1,48.2,29.89,ENE,70,0.0,1.0,93,0.00,,,0.00,WeatherTracker,2013-02-05 12:38:00,
2013-02-05 06:43:00,49.9,48.0,29.89,ENE,71,0.0,1.0,93,0.00,,,0.00,WeatherTracker,2013-02-05 12:43:00,
2013-02-05 06:48:00,49.8,47.9,29.89,ENE,71,0.0,1.0,93,0.00,,,0.00,WeatherTracker,2013-02-05 12:48:00,
2013-02-05 06:53:00,49.7,47.8,29.89,ENE,76,0.0,1.0,93,0.00,,,0.00,WeatherTracker,2013-02-05 12:53:00,
2013-02-05 06:58:00,49.7,47.8,29.90,ENE,72,0.0,1.0,93,0.00,,,0.00,WeatherTracker,2013-02-05 12:58:00,
2013-02-05 07:03:00,49.5,47.3,29.90,ENE,72,0.0,1.0,92,0.00,,,0.00,WeatherTracker,2013-02-05 13:03:00,
2013-02-05 07:08:00,49.3,47.1,29.91,ENE,72,0.0,0.0,92,0.00,,,0.00,WeatherTracker,2013-02-05 13:08:00,
2013-02-05 07:13:00,49.1,46.9,29.91,ENE,72,0.0,0.0,92,0.00,,,0.00,WeatherTracker,2013-02-05 13:13:00,
2013-02-05 07:18:00,49.1,46.9,29.91,ENE,71,0.0,0.0,92,0.00,,,0.00,WeatherTracker,2013-02-05 13:18:00,
2013-02-05 07:23:00,49.3,47.1,29.91,ENE,69,0.0,1.0,92,0.00,,,0.00,WeatherTracker,2013-02-05 13:23:00,
2013-02-05 07:28:00,49.4,46.9,29.91,ENE,70,0.0,1.0,91,0.00,,,0.00,WeatherTracker,2013-02-05 13:28:00,
2013-02-05 07:33:00,49.5,46.7,29.91,ENE,68,0.0,1.0,90,0.00,,,0.00,WeatherTracker,2013-02-05 13:33:00,
2013-02-05 07:38:00,49.6,46.5,29.91,ENE,68,0.0,1.0,89,0.00,,,0.00,WeatherTracker,2013-02-05 13:38:00,
2013-02-05 07:43:00,49.7,46.6,29.91,ENE,68,0.0,1.0,89,0.00,,,0.00,WeatherTracker,2013-02-05 13:43:00,
2013-02-05 07:48:00,49.9,46.5,29.92,ENE,68,0.0,1.0,88,0.00,,,0.00,WeatherTracker,2013-02-05 13:48:00,
2013-02-05 07:53:00,49.9,46.5,29.92,ENE,69,0.0,1.0,88,0.00,,,0.00,WeatherTracker,2013-02-05 13:53:00,
2013-02-05 07:58:00,49.9,46.2,29.92,ENE,69,0.0,1.0,87,0.00,,,0.00,WeatherTracker,2013-02-05 13:58:00,
2013-02-05 08:03:00,50.0,46.3,29.92,ENE,70,0.0,1.0,87,0.00,,,0.00,WeatherTracker,2013-02-05 14:03:00,
2013-02-05 08:08:00,50.3,46.3,29.92,ENE,70,0.0,0.0,86,0.00,,,0.00,WeatherTracker,2013-02-05 14:08:00,
2013-02-05 08:14:00,50.6,46.6,29.92,ENE,70,0.0,0.0,86,0.00,,,0.00,WeatherTracker,2013-02-05 14:14:00,
2013-02-05 08:19:00,51.4,47.0,29.92,ENE,69,0.0,0.0,85,0.00,,,0.00,WeatherTracker,2013-02-05 14:19:00,
2013-02-05 08:24:00,52.2,47.2,29.92,ENE,70,0.0,1.0,83,0.00,,,0.00,WeatherTracker,2013-02-05 14:24:00,
2013-02-05 08:29:00,52.9,47.6,29.93,ENE,58,1.0,1.0,82,0.00,,,0.00,WeatherTracker,2013-02-05 14:29:00,
2013-02-05 08:34:00,53.6,47.6,29.93,ENE,66,0.0,2.0,80,0.00,,,0.00,WeatherTracker,2013-02-05 14:34:00,
2013-02-05 08:39:00,54.1,48.1,29.93,ENE,60,0.0,2.0,80,0.00,,,0.00,WeatherTracker,2013-02-05 14:39:00,
2013-02-05 08:44:00,54.7,48.3,29.93,ENE,62,0.0,2.0,79,0.00,,,0.00,WeatherTracker,2013-02-05 14:44:00,
2013-02-05 08:49:00,55.2,48.5,29.93,ENE,63,0.0,1.0,78,0.00,,,0.00,WeatherTracker,2013-02-05 14:49:00,
2013-02-05 08:54:00,55.7,48.3,29.93,ENE,60,0.0,1.0,76,0.00,,,0.00,WeatherTracker,2013-02-05 14:54:00,
2013-02-05 08:59:00,56.3,48.1,29.93,NE,56,0.0,1.0,74,0.00,,,0.00,WeatherTracker,2013-02-05 14:59:00,
2013-02-05 09:04:00,57.2,48.3,29.93,NE,46,1.0,1.0,72,0.00,,,0.00,WeatherTracker,2013-02-05 15:04:00,
2013-02-05 09:09:00,58.2,48.1,29.93,NE,44,2.0,2.0,69,0.00,,,0.00,WeatherTracker,2013-02-05 15:09:00,
2013-02-05 09:14:00,59.3,47.5,29.94,NNW,336,0.0,3.0,65,0.00,,,0.00,WeatherTracker,2013-02-05 15:14:00,
2013-02-05 09:19:00,60.3,48.5,29.94,NE,56,1.0,3.0,65,0.00,,,0.00,WeatherTracker,2013-02-05 15:19:00,
2013-02-05 09:24:00,61.3,47.7,29.94,NNE,13,0.0,2.0,61,0.00,,,0.00,WeatherTracker,2013-02-05 15:24:00,
2013-02-05 09:29:00,62.0,48.8,29.94,NW,326,0.0,2.0,62,0.00,,,0.00,WeatherTracker,2013-02-05 15:29:00,
2013-02-05 09:34:00,62.7,48.6,29.94,NE,40,0.0,2.0,60,0.00,,,0.00,WeatherTracker,2013-02-05 15:34:00,
2013-02-05 09:39:00,63.5,48.5,29.95,NE,35,0.0,4.0,58,0.00,,,0.00,WeatherTracker,2013-02-05 15:39:00,
2013-02-05 09:44:00,64.2,48.2,29.95,NE,45,0.0,4.0,56,0.00,,,0.00,WeatherTracker,2013-02-05 15:44:00,
2013-02-05 09:49:00,65.0,46.9,29.95,NE,42,1.0,2.0,52,0.00,,,0.00,WeatherTracker,2013-02-05 15:49:00,
2013-02-05 09:54:00,65.6,47.0,29.95,NNE,29,0.0,3.0,51,0.00,,,0.00,WeatherTracker,2013-02-05 15:54:00,
2013-02-05 09:59:00,66.4,47.2,29.95,ENE,73,1.0,3.0,50,0.00,,,0.00,WeatherTracker,2013-02-05 15:59:00,
2013-02-05 10:04:00,66.9,46.6,29.96,NE,44,0.0,3.0,48,0.00,,,0.00,WeatherTracker,2013-02-05 16:04:00,
2013-02-05 10:09:00,67.2,46.8,29.96,NE,52,0.0,3.0,48,0.00,,,0.00,WeatherTracker,2013-02-05 16:09:00,
2013-02-05 10:14:00,67.8,47.4,29.96,NW,314,1.0,3.0,48,0.00,,,0.00,WeatherTracker,2013-02-05 16:14:00,
2013-02-05 10:19:00,68.4,47.9,29.96,WNW,295,0.0,2.0,48,0.00,,,0.00,WeatherTracker,2013-02-05 16:19:00,
2013-02-05 10:24:00,69.4,47.7,29.96,NNW,335,0.0,2.0,46,0.00,,,0.00,WeatherTracker,2013-02-05 16:24:00,
2013-02-05 10:29:00,70.1,47.2,29.96,NE,56,0.0,2.0,44,0.00,,,0.00,WeatherTracker,2013-02-05 16:29:00,
2013-02-05 10:35:00,70.7,48.3,29.96,WNW,288,0.0,2.0,45,0.00,,,0.00,WeatherTracker,2013-02-05 16:35:00,
2013-02-05 10:40:00,71.3,48.2,29.96,NE,53,2.0,3.0,44,0.00,,,0.00,WeatherTracker,2013-02-05 16:40:00,
2013-02-05 10:45:00,71.3,48.2,29.96,ENE,65,0.0,3.0,44,0.00,,,0.00,WeatherTracker,2013-02-05 16:45:00,
2013-02-05 10:50:00,71.6,48.5,29.96,ENE,65,2.0,3.0,44,0.00,,,0.00,WeatherTracker,2013-02-05 16:50:00,
2013-02-05 10:55:00,71.9,49.4,29.96,ESE,117,0.0,2.0,45,0.00,,,0.00,WeatherTracker,2013-02-05 16:55:00,
2013-02-05 11:00:00,72.3,49.8,29.96,NNE,20,0.0,2.0,45,0.00,,,0.00,WeatherTracker,2013-02-05 17:00:00,
2013-02-05 11:05:00,72.7,48.9,29.96,East,100,1.0,2.0,43,0.00,,,0.00,WeatherTracker,2013-02-05 17:05:00,
2013-02-05 11:10:00,73.2,50.0,29.96,NE,45,0.0,2.0,44,0.00,,,0.00,WeatherTracker,2013-02-05 17:10:00,
2013-02-05 11:15:00,73.4,49.5,29.96,ENE,65,0.0,3.0,43,0.00,,,0.00,WeatherTracker,2013-02-05 17:15:00,
2013-02-05 11:20:00,73.7,49.2,29.96,East,82,1.0,3.0,42,0.00,,,0.00,WeatherTracker,2013-02-05 17:20:00,
2013-02-05 11:25:00,74.1,49.5,29.96,ENE,70,0.0,3.0,42,0.00,,,0.00,WeatherTracker,2013-02-05 17:25:00,
2013-02-05 11:30:00,74.5,49.9,29.95,NE,41,0.0,3.0,42,0.00,,,0.00,WeatherTracker,2013-02-05 17:30:00,
2013-02-05 11:35:00,75.2,48.5,29.95,North,8,0.0,4.0,39,0.00,,,0.00,WeatherTracker,2013-02-05 17:35:00,
2013-02-05 11:40:00,75.8,47.7,29.95,ENE,61,1.0,4.0,37,0.00,,,0.00,WeatherTracker,2013-02-05 17:40:00,
2013-02-05 11:45:00,75.8,46.2,29.95,NW,322,2.0,3.0,35,0.00,,,0.00,WeatherTracker,2013-02-05 17:45:00,
2013-02-05 11:50:00,75.4,46.6,29.95,WNW,297,1.0,4.0,36,0.00,,,0.00,WeatherTracker,2013-02-05 17:50:00,
2013-02-05 11:55:00,75.3,44.2,29.95,NW,305,0.0,4.0,33,0.00,,,0.00,WeatherTracker,2013-02-05 17:55:00,
2013-02-05 12:00:00,75.5,48.1,29.95,NE,56,0.0,3.0,38,0.00,,,0.00,WeatherTracker,2013-02-05 18:00:00,
2013-02-05 12:05:00,75.9,47.0,29.95,NNE,28,0.0,3.0,36,0.00,,,0.00,WeatherTracker,2013-02-05 18:05:00,
2013-02-05 12:10:00,76.2,45.0,29.95,NE,44,2.0,3.0,33,0.00,,,0.00,WeatherTracker,2013-02-05 18:10:00,
2013-02-05 12:15:00,76.2,45.0,29.95,West,259,2.0,3.0,33,0.00,,,0.00,WeatherTracker,2013-02-05 18:15:00,
2013-02-05 12:20:00,76.6,42.8,29.94,ENE,77,1.0,5.0,30,0.00,,,0.00,WeatherTracker,2013-02-05 18:20:00,
2013-02-05 12:25:00,76.8,41.2,29.94,ENE,58,2.0,5.0,28,0.00,,,0.00,WeatherTracker,2013-02-05 18:25:00,
2013-02-05 12:30:00,77.3,42.5,29.94,NNE,32,1.0,5.0,29,0.00,,,0.00,WeatherTracker,2013-02-05 18:30:00,
2013-02-05 12:35:00,78.1,41.4,29.94,East,88,3.0,5.0,27,0.00,,,0.00,WeatherTracker,2013-02-05 18:35:00,
2013-02-05 12:40:00,78.4,40.7,29.93,West,276,0.0,4.0,26,0.00,,,0.00,WeatherTracker,2013-02-05 18:40:00,
2013-02-05 12:45:00,78.6,41.8,29.93,NE,56,0.0,4.0,27,0.00,,,0.00,WeatherTracker,2013-02-05 18:45:00,
2013-02-05 12:50:00,78.8,41.0,29.93,North,349,1.0,3.0,26,0.00,,,0.00,WeatherTracker,2013-02-05 18:50:00,
2013-02-05 12:56:00,78.9,42.1,29.93,SW,228,1.0,3.0,27,0.00,,,0.00,WeatherTracker,2013-02-05 18:56:00,
2013-02-05 13:01:00,78.4,40.7,29.92,NW,312,2.0,4.0,26,0.00,,,0.00,WeatherTracker,2013-02-05 19:01:00,
2013-02-05 13:06:00,78.1,41.4,29.92,WSW,240,0.0,4.0,27,0.00,,,0.00,WeatherTracker,2013-02-05 19:06:00,
2013-02-05 13:11:00,78.3,43.4,29.92,WSW,253,0.0,3.0,29,0.00,,,0.00,WeatherTracker,2013-02-05 19:11:00,
2013-02-05 13:16:00,78.7,40.9,29.91,ENE,78,1.0,3.0,26,0.00,,,0.00,WeatherTracker,2013-02-05 19:16:00,
2013-02-05 13:21:00,78.2,39.5,29.91,West,269,1.0,3.0,25,0.00,,,0.00,WeatherTracker,2013-02-05 19:21:00,
2013-02-05 13:26:00,78.0,40.3,29.91,SW,233,2.0,3.0,26,0.00,,,0.00,WeatherTracker,2013-02-05 19:26:00,
2013-02-05 13:31:00,78.5,40.7,29.91,West,274,1.0,2.0,26,0.00,,,0.00,WeatherTracker,2013-02-05 19:31:00,
2013-02-05 13:36:00,78.4,42.6,29.91,NNE,29,0.0,2.0,28,0.00,,,0.00,WeatherTracker,2013-02-05 19:36:00,
2013-02-05 13:41:00,78.3,41.5,29.91,NNW,345,0.0,1.0,27,0.00,,,0.00,WeatherTracker,2013-02-05 19:41:00,
2013-02-05 13:46:00,78.6,40.8,29.90,NNW,345,0.0,1.0,26,0.00,,,0.00,WeatherTracker,2013-02-05 19:46:00,
2013-02-05 13:51:00,78.6,40.8,29.90,WNW,297,0.0,1.0,26,0.00,,,0.00,WeatherTracker,2013-02-05 19:51:00,
2013-02-05 13:56:00,78.7,40.9,29.90,NE,51,0.0,1.0,26,0.00,,,0.00,WeatherTracker,2013-02-05 19:56:00,
2013-02-05 14:01:00,79.1,41.3,29.89,SW,219,0.0,2.0,26,0.00,,,0.00,WeatherTracker,2013-02-05 20:01:00,
2013-02-05 14:06:00,79.3,40.4,29.89,ENE,78,0.0,2.0,25,0.00,,,0.00,WeatherTracker,2013-02-05 20:06:00,
2013-02-05 14:11:00,79.2,41.3,29.89,East,94,0.0,2.0,26,0.00,,,0.00,WeatherTracker,2013-02-05 20:11:00,
2013-02-05 14:16:00,79.7,43.7,29.89,ESE,110,0.0,1.0,28,0.00,,,0.00,WeatherTracker,2013-02-05 20:16:00,
2013-02-05 14:21:00,80.1,42.1,29.89,NE,47,1.0,2.0,26,0.00,,,0.00,WeatherTracker,2013-02-05 20:21:00,
2013-02-05 14:26:00,80.1,40.0,29.89,NW,323,0.0,2.0,24,0.00,,,0.00,WeatherTracker,2013-02-05 20:26:00,
2013-02-05 14:31:00,80.1,40.0,29.89,ENE,70,0.0,2.0,24,0.00,,,0.00,WeatherTracker,2013-02-05 20:31:00,
2013-02-05 14:36:00,80.3,42.3,29.88,NNW,348,0.0,1.0,26,0.00,,,0.00,WeatherTracker,2013-02-05 20:36:00,
2013-02-05 14:41:00,80.1,41.1,29.88,North,352,0.0,1.0,25,0.00,,,0.00,WeatherTracker,2013-02-05 20:41:00,
2013-02-05 14:46:00,79.9,40.9,29.88,WNW,290,0.0,1.0,25,0.00,,,0.00,WeatherTracker,2013-02-05 20:46:00,
2013-02-05 14:51:00,79.6,39.6,29.87,NNE,18,0.0,1.0,24,0.00,,,0.00,WeatherTracker,2013-02-05 20:51:00,
2013-02-05 14:56:00,79.4,43.4,29.87,NNE,22,0.0,1.0,28,0.00,,,0.00,WeatherTracker,2013-02-05 20:56:00,
2013-02-05 15:01:00,79.8,40.8,29.87,NE,47,0.0,2.0,25,0.00,,,0.00,WeatherTracker,2013-02-05 21:01:00,
2013-02-05 15:07:00,80.2,40.1,29.86,WSW,246,1.0,2.0,24,0.00,,,0.00,WeatherTracker,2013-02-05 21:07:00,
2013-02-05 15:12:00,80.4,40.3,29.86,WNW,298,0.0,1.0,24,0.00,,,0.00,WeatherTracker,2013-02-05 21:12:00,
2013-02-05 15:17:00,80.6,38.2,29.86,SE,134,0.0,1.0,22,0.00,,,0.00,WeatherTracker,2013-02-05 21:17:00,
2013-02-05 15:22:00,80.1,38.9,29.86,WSW,253,0.0,1.0,23,0.00,,,0.00,WeatherTracker,2013-02-05 21:22:00,
2013-02-05 15:27:00,79.6,37.4,29.86,WSW,254,0.0,1.0,22,0.00,,,0.00,WeatherTracker,2013-02-05 21:27:00,
2013-02-05 15:32:00,79.4,41.5,29.86,WSW,255,0.0,1.0,26,0.00,,,0.00,WeatherTracker,2013-02-05 21:32:00,
2013-02-05 15:37:00,79.1,39.2,29.86,WNW,302,1.0,1.0,24,0.00,,,0.00,WeatherTracker,2013-02-05 21:37:00,
2013-02-05 15:42:00,78.8,40.0,29.86,NW,304,0.0,1.0,25,0.00,,,0.00,WeatherTracker,2013-02-05 21:42:00,
2013-02-05 15:47:00,78.9,39.0,29.85,NW,304,0.0,1.0,24,0.00,,,0.00,WeatherTracker,2013-02-05 21:47:00,
2013-02-05 15:52:00,78.9,41.1,29.86,NW,305,0.0,0.0,26,0.00,,,0.00,WeatherTracker,2013-02-05 21:52:00,
2013-02-05 15:57:00,78.8,42.9,29.85,NW,304,0.0,0.0,28,0.00,,,0.00,WeatherTracker,2013-02-05 21:57:00,
2013-02-05 16:02:00,78.6,39.8,29.85,NW,305,0.0,0.0,25,0.00,,,0.00,WeatherTracker,2013-02-05 22:02:00,
2013-02-05 16:07:00,78.4,39.6,29.85,WNW,295,0.0,1.0,25,0.00,,,0.00,WeatherTracker,2013-02-05 22:07:00,
2013-02-05 16:12:00,78.1,41.4,29.86,WNW,295,0.0,1.0,27,0.00,,,0.00,WeatherTracker,2013-02-05 22:12:00,
2013-02-05 16:17:00,78.0,44.0,29.85,WNW,295,0.0,1.0,30,0.00,,,0.00,WeatherTracker,2013-02-05 22:17:00,
2013-02-05 16:22:00,77.5,43.6,29.86,WNW,295,0.0,1.0,30,0.00,,,0.00,WeatherTracker,2013-02-05 22:22:00,
2013-02-05 16:27:00,77.1,44.1,29.86,WNW,295,0.0,0.0,31,0.00,,,0.00,WeatherTracker,2013-02-05 22:27:00,
2013-02-05 16:32:00,76.9,44.8,29.86,WNW,295,0.0,0.0,32,0.00,,,0.00,WeatherTracker,2013-02-05 22:32:00,
2013-02-05 16:37:00,76.8,40.3,29.86,WNW,295,0.0,0.0,27,0.00,,,0.00,WeatherTracker,2013-02-05 22:37:00,
2013-02-05 16:42:00,77.5,37.8,29.86,SE,139,0.0,0.0,24,0.00,,,0.00,WeatherTracker,2013-02-05 22:42:00,
2013-02-05 16:47:00,78.3,37.4,29.86,East,95,0.0,1.0,23,0.00,,,0.00,WeatherTracker,2013-02-05 22:47:00,
2013-02-05 16:52:00,78.8,37.9,29.86,ESE,115,0.0,1.0,23,0.00,,,0.00,WeatherTracker,2013-02-05 22:52:00,
2013-02-05 16:57:00,79.1,37.0,29.86,ESE,103,0.0,1.0,22,0.00,,,0.00,WeatherTracker,2013-02-05 22:57:00,
2013-02-05 17:02:00,79.4,38.4,29.86,ESE,103,0.0,1.0,23,0.00,,,0.00,WeatherTracker,2013-02-05 23:02:00,
2013-02-05 17:08:00,79.2,37.1,29.85,East,100,0.0,1.0,22,0.00,,,0.00,WeatherTracker,2013-02-05 23:08:00,
2013-02-05 17:13:00,79.0,38.0,29.86,ESE,118,0.0,1.0,23,0.00,,,0.00,WeatherTracker,2013-02-05 23:13:00,
2013-02-05 17:18:00,78.9,40.1,29.86,ESE,118,0.0,1.0,25,0.00,,,0.00,WeatherTracker,2013-02-05 23:18:00,
2013-02-05 17:23:00,77.9,38.2,29.85,ESE,118,0.0,1.0,24,0.00,,,0.00,WeatherTracker,2013-02-05 23:23:00,
2013-02-05 17:28:00,77.0,39.5,29.85,ESE,115,0.0,1.0,26,0.00,,,0.00,WeatherTracker,2013-02-05 23:28:00,
2013-02-05 17:33:00,76.1,39.7,29.85,ESE,116,0.0,0.0,27,0.00,,,0.00,WeatherTracker,2013-02-05 23:33:00,
2013-02-05 17:38:00,75.5,40.1,29.85,ESE,115,0.0,0.0,28,0.00,,,0.00,WeatherTracker,2013-02-05 23:38:00,
2013-02-05 17:43:00,74.9,39.6,29.86,ESE,116,0.0,0.0,28,0.00,,,0.00,WeatherTracker,2013-02-05 23:43:00,
2013-02-05 17:48:00,74.6,39.3,29.86,ESE,114,0.0,1.0,28,0.00,,,0.00,WeatherTracker,2013-02-05 23:48:00,
2013-02-05 17:53:00,74.1,39.8,29.86,ESE,105,0.0,1.0,29,0.00,,,0.00,WeatherTracker,2013-02-05 23:53:00,
2013-02-05 17:58:00,73.6,40.2,29.86,SE,128,0.0,1.0,30,0.00,,,0.00,WeatherTracker,2013-02-05 23:58:00,
2013-02-05 18:03:00,73.1,40.7,29.86,SE,128,0.0,0.0,31,0.00,,,0.00,WeatherTracker,2013-02-06 00:03:00,
2013-02-05 18:08:00,72.7,41.1,29.86,SE,129,0.0,1.0,32,0.00,,,0.00,WeatherTracker,2013-02-06 00:08:00,
2013-02-05 18:13:00,72.1,42.2,29.86,SE,128,0.0,1.0,34,0.00,,,0.00,WeatherTracker,2013-02-06 00:13:00,
2013-02-05 18:18:00,71.4,41.6,29.86,SE,125,0.0,1.0,34,0.00,,,0.00,WeatherTracker,2013-02-06 00:18:00,
2013-02-05 18:23:00,71.1,42.8,29.86,SE,126,0.0,1.0,36,0.00,,,0.00,WeatherTracker,2013-02-06 00:23:00,
2013-02-05 18:28:00,71.0,42.0,29.86,ESE,118,0.0,1.0,35,0.00,,,0.00,WeatherTracker,2013-02-06 00:28:00,
2013-02-05 18:33:00,70.9,41.9,29.87,ESE,117,0.0,1.0,35,0.00,,,0.00,WeatherTracker,2013-02-06 00:33:00,
2013-02-05 18:38:00,70.8,41.8,29.87,ESE,118,0.0,1.0,35,0.00,,,0.00,WeatherTracker,2013-02-06 00:38:00,
2013-02-05 18:43:00,70.7,42.4,29.87,ESE,117,0.0,1.0,36,0.00,,,0.00,WeatherTracker,2013-02-06 00:43:00,
2013-02-05 18:48:00,70.6,42.3,29.87,East,82,1.0,1.0,36,0.00,,,0.00,WeatherTracker,2013-02-06 00:48:00,
2013-02-05 18:53:00,70.8,42.5,29.87,East,85,0.0,1.0,36,0.00,,,0.00,WeatherTracker,2013-02-06 00:53:00,
2013-02-05 18:58:00,70.8,42.5,29.87,East,79,0.0,1.0,36,0.00,,,0.00,WeatherTracker,2013-02-06 00:58:00,
2013-02-05 19:03:00,70.7,43.1,29.88,ENE,78,0.0,1.0,37,0.00,,,0.00,WeatherTracker,2013-02-06 01:03:00,
2013-02-05 19:09:00,70.6,43.1,29.88,East,93,0.0,1.0,37,0.00,,,0.00,WeatherTracker,2013-02-06 01:09:00,
2013-02-05 19:14:00,70.5,43.0,29.88,ENE,65,0.0,1.0,37,0.00,,,0.00,WeatherTracker,2013-02-06 01:14:00,
2013-02-05 19:19:00,70.6,43.7,29.88,NE,51,2.0,2.0,38,0.00,,,0.00,WeatherTracker,2013-02-06 01:19:00,
2013-02-05 19:24:00,70.7,43.8,29.88,East,79,1.0,3.0,38,0.00,,,0.00,WeatherTracker,2013-02-06 01:24:00,
2013-02-05 19:29:00,70.7,43.8,29.88,East,81,0.0,3.0,38,0.00,,,0.00,WeatherTracker,2013-02-06 01:29:00,
2013-02-05 19:34:00,70.4,44.2,29.89,East,84,0.0,2.0,39,0.00,,,0.00,WeatherTracker,2013-02-06 01:34:00,
2013-02-05 19:39:00,70.1,44.0,29.89,East,101,0.0,1.0,39,0.00,,,0.00,WeatherTracker,2013-02-06 01:39:00,
2013-02-05 19:44:00,69.8,44.4,29.89,East,80,0.0,1.0,40,0.00,,,0.00,WeatherTracker,2013-02-06 01:44:00,
2013-02-05 19:49:00,69.5,44.1,29.89,East,90,0.0,1.0,40,0.00,,,0.00,WeatherTracker,2013-02-06 01:49:00,
2013-02-05 19:54:00,69.1,44.4,29.89,East,90,0.0,1.0,41,0.00,,,0.00,WeatherTracker,2013-02-06 01:54:00,
2013-02-05 19:59:00,68.8,44.1,29.89,East,91,0.0,2.0,41,0.00,,,0.00,WeatherTracker,2013-02-06 01:59:00,
2013-02-05 20:04:00,68.8,44.1,29.90,ENE,78,0.0,2.0,41,0.00,,,0.00,WeatherTracker,2013-02-06 02:04:00,
2013-02-05 20:09:00,68.6,44.0,29.90,ESE,103,0.0,2.0,41,0.00,,,0.00,WeatherTracker,2013-02-06 02:09:00,
2013-02-05 20:14:00,68.5,44.5,29.90,East,84,0.0,1.0,42,0.00,,,0.00,WeatherTracker,2013-02-06 02:14:00,
2013-02-05 20:19:00,68.4,44.4,29.90,East,83,0.0,3.0,42,0.00,,,0.00,WeatherTracker,2013-02-06 02:19:00,
2013-02-05 20:24:00,68.1,44.1,29.90,East,80,0.0,3.0,42,0.00,,,0.00,WeatherTracker,2013-02-06 02:24:00,
2013-02-05 20:29:00,67.9,44.0,29.91,East,90,0.0,1.0,42,0.00,,,0.00,WeatherTracker,2013-02-06 02:29:00,
2013-02-05 20:34:00,67.8,44.5,29.91,ESE,107,0.0,1.0,43,0.00,,,0.00,WeatherTracker,2013-02-06 02:34:00,
2013-02-05 20:39:00,67.8,44.5,29.92,ENE,76,0.0,1.0,43,0.00,,,0.00,WeatherTracker,2013-02-06 02:39:00,
2013-02-05 20:44:00,67.7,44.4,29.92,ENE,76,0.0,1.0,43,0.00,,,0.00,WeatherTracker,2013-02-06 02:44:00,
2013-02-05 20:49:00,67.6,44.3,29.92,ENE,77,0.0,1.0,43,0.00,,,0.00,WeatherTracker,2013-02-06 02:49:00,
2013-02-05 20:54:00,67.6,44.3,29.93,ENE,77,0.0,1.0,43,0.00,,,0.00,WeatherTracker,2013-02-06 02:54:00,
2013-02-05 20:59:00,67.7,44.4,29.93,ENE,77,0.0,1.0,43,0.00,,,0.00,WeatherTracker,2013-02-06 02:59:00,
2013-02-05 21:04:00,68.0,44.7,29.92,ENE,73,0.0,2.0,43,0.00,,,0.00,WeatherTracker,2013-02-06 03:04:00,
2013-02-05 21:10:00,68.2,44.8,29.92,ENE,70,0.0,2.0,43,0.00,,,0.00,WeatherTracker,2013-02-06 03:10:00,
2013-02-05 21:15:00,68.4,44.4,29.92,ENE,76,0.0,1.0,42,0.00,,,0.00,WeatherTracker,2013-02-06 03:15:00,
2013-02-05 21:20:00,68.4,45.0,29.92,ENE,78,0.0,1.0,43,0.00,,,0.00,WeatherTracker,2013-02-06 03:20:00,
2013-02-05 21:25:00,68.2,46.0,29.92,ESE,102,0.0,1.0,45,0.00,,,0.00,WeatherTracker,2013-02-06 03:25:00,
2013-02-05 21:30:00,67.7,47.3,29.92,East,98,0.0,1.0,48,0.00,,,0.00,WeatherTracker,2013-02-06 03:30:00,
2013-02-05 21:35:00,67.2,47.4,29.93,East,82,0.0,1.0,49,0.00,,,0.00,WeatherTracker,2013-02-06 03:35:00,
2013-02-05 21:40:00,67.1,47.3,29.93,East,79,0.0,2.0,49,0.00,,,0.00,WeatherTracker,2013-02-06 03:40:00,
2013-02-05 21:45:00,66.9,47.1,29.93,East,79,0.0,2.0,49,0.00,,,0.00,WeatherTracker,2013-02-06 03:45:00,
2013-02-05 21:50:00,66.6,47.9,29.93,East,79,0.0,1.0,51,0.00,,,0.00,WeatherTracker,2013-02-06 03:50:00,
2013-02-05 21:55:00,65.8,47.2,29.93,ENE,75,0.0,1.0,51,0.00,,,0.00,WeatherTracker,2013-02-06 03:55:00,
2013-02-05 22:00:00,65.2,47.6,29.93,ENE,71,0.0,1.0,53,0.00,,,0.00,WeatherTracker,2013-02-06 04:00:00,
2013-02-05 22:05:00,64.9,47.4,29.93,ENE,70,0.0,1.0,53,0.00,,,0.00,WeatherTracker,2013-02-06 04:05:00,
2013-02-05 22:10:00,64.8,46.8,29.93,ENE,72,0.0,1.0,52,0.00,,,0.00,WeatherTracker,2013-02-06 04:10:00,
2013-02-05 22:15:00,64.7,46.7,29.93,ENE,68,0.0,1.0,52,0.00,,,0.00,WeatherTracker,2013-02-06 04:15:00,
2013-02-05 22:20:00,64.6,46.6,29.93,ENE,68,0.0,1.0,52,0.00,,,0.00,WeatherTracker,2013-02-06 04:20:00,
2013-02-05 22:25:00,64.5,46.5,29.94,ENE,68,0.0,1.0,52,0.00,,,0.00,WeatherTracker,2013-02-06 04:25:00,
2013-02-05 22:30:00,64.4,46.9,29.94,ENE,68,0.0,0.0,53,0.00,,,0.00,WeatherTracker,2013-02-06 04:30:00,
2013-02-05 22:35:00,64.3,46.8,29.95,ENE,68,0.0,0.0,53,0.00,,,0.00,WeatherTracker,2013-02-06 04:35:00,
2013-02-05 22:40:00,64.3,46.8,29.95,ENE,68,0.0,0.0,53,0.00,,,0.00,WeatherTracker,2013-02-06 04:40:00,
2013-02-05 22:45:00,64.1,47.6,29.96,ENE,68,0.0,0.0,55,0.00,,,0.00,WeatherTracker,2013-02-06 04:45:00,
2013-02-05 22:50:00,63.8,48.7,29.96,ENE,68,0.0,1.0,58,0.00,,,0.00,WeatherTracker,2013-02-06 04:50:00,
2013-02-05 22:55:00,63.5,48.0,29.96,ENE,68,0.0,1.0,57,0.00,,,0.00,WeatherTracker,2013-02-06 04:55:00,
2013-02-05 23:00:00,63.1,49.0,29.96,ENE,68,0.0,0.0,60,0.00,,,0.00,WeatherTracker,2013-02-06 05:00:00,
2013-02-05 23:05:00,62.8,49.1,29.96,ENE,68,0.0,0.0,61,0.00,,,0.00,WeatherTracker,2013-02-06 05:05:00,
2013-02-05 23:10:00,62.5,48.9,29.97,WSW,243,0.0,1.0,61,0.00,,,0.00,WeatherTracker,2013-02-06 05:10:00,
2013-02-05 23:15:00,62.5,48.4,29.97,WSW,243,0.0,1.0,60,0.00,,,0.00,WeatherTracker,2013-02-06 05:15:00,
2013-02-05 23:20:00,62.5,48.9,29.97,WSW,243,0.0,1.0,61,0.00,,,0.00,WeatherTracker,2013-02-06 05:20:00,
2013-02-05 23:25:00,62.5,49.3,29.96,WSW,243,0.0,0.0,62,0.00,,,0.00,WeatherTracker,2013-02-06 05:25:00,
2013-02-05 23:30:00,62.4,49.6,29.96,WSW,243,0.0,0.0,63,0.00,,,0.00,WeatherTracker,2013-02-06 05:30:00,
2013-02-05 23:35:00,62.2,49.0,29.96,WSW,243,0.0,0.0,62,0.00,,,0.00,WeatherTracker,2013-02-06 05:35:00,
2013-02-05 23:40:00,62.1,49.4,29.96,WSW,243,0.0,0.0,63,0.00,,,0.00,WeatherTracker,2013-02-06 05:40:00,
2013-02-05 23:45:00,62.3,49.5,29.95,South,188,0.0,0.0,63,0.00,,,0.00,WeatherTracker,2013-02-06 05:45:00,
2013-02-05 23:50:00,62.8,51.7,29.95,SSE,160,0.0,0.0,67,0.00,,,0.00,WeatherTracker,2013-02-06 05:50:00,
2013-02-05 23:55:00,62.5,51.8,29.96,SSE,153,0.0,1.0,68,0.00,,,0.00,WeatherTracker,2013-02-06 05:55:00,